Time;durP1;ratioP1;P1;durP2;ratioP2;P2;SDS_P1;SDS_P2;PMS_P1;PMS_P2;Temp;Humidity;BMP_temperature;BMP_pressure;BME280_temperature;BME280_humidity;BME280_pressure;Samples;Min_cycle;Max_cycle;Signal;HPM_P1;HPM_P2
2021/07/01 00:00:47;;;;;;;;;10.50;10.50;;;;;18.93;58.20;101321.66;5082146;27;45317;-62
2021/07/01 00:03:12;;;;;;;;;10.00;9.00;;;;;18.95;58.12;101325.13;5084068;27;45274;-62
2021/07/01 00:05:37;;;;;;;;;10.50;10.50;;;;;18.93;57.99;101322.53;5095723;27;45335;-62
2021/07/01 00:08:04;;;;;;;;;9.00;8.25;;;;;18.94;58.00;101332.25;5082176;27;45319;-62
2021/07/01 00:10:30;;;;;;;;;15.50;11.25;;;;;18.95;58.31;101331.31;5082048;27;45269;-62
2021/07/01 00:12:55;;;;;;;;;9.25;7.00;;;;;18.94;57.64;101323.38;5082028;27;45182;-62
2021/07/01 00:15:33;;;;;;;;;9.00;8.50;;;;;18.96;58.20;101324.22;5096842;27;45467;-62
2021/07/01 00:17:59;;;;;;;;;11.50;10.50;;;;;18.97;58.31;101328.59;5090660;27;45399;-62
2021/07/01 00:20:24;;;;;;;;;10.25;8.50;;;;;18.93;58.13;101321.66;5086082;27;45352;-63
2021/07/01 00:22:52;;;;;;;;;11.75;11.75;;;;;18.94;58.04;101323.38;5081989;27;45276;-62
2021/07/01 00:25:19;;;;;;;;;10.25;8.75;;;;;18.97;58.15;101328.59;5081987;27;45296;-62
2021/07/01 00:27:45;;;;;;;;;7.00;7.00;;;;;18.91;58.24;101321.72;5081731;27;45315;-62
2021/07/01 00:30:13;;;;;;;;;7.50;7.50;;;;;18.97;57.79;101328.59;5081539;27;47128;-63
2021/07/01 00:32:38;;;;;;;;;9.75;9.75;;;;;18.98;58.14;101322.31;5083677;27;45216;-63
2021/07/01 00:35:05;;;;;;;;;6.50;6.50;;;;;18.98;58.24;101322.31;5083338;27;45362;-62
2021/07/01 00:37:32;;;;;;;;;10.25;8.50;;;;;18.99;58.16;101322.28;5092261;27;45629;-62
2021/07/01 00:40:02;;;;;;;;;9.75;8.50;;;;;18.98;58.11;101317.00;5080150;28;47149;-63
2021/07/01 00:42:27;;;;;;;;;11.75;7.75;;;;;19.00;58.12;101325.81;5067215;27;45232;-63
2021/07/01 00:44:52;;;;;;;;;8.00;7.50;;;;;19.00;57.86;101323.16;5102099;27;45264;-63
2021/07/01 00:47:18;;;;;;;;;10.25;7.50;;;;;19.00;58.25;101328.47;5091491;27;45210;-63
2021/07/01 00:49:43;;;;;;;;;8.50;6.75;;;;;18.92;57.98;101303.97;5081283;27;45697;-62
2021/07/01 00:52:12;;;;;;;;;10.75;10.50;;;;;19.01;57.84;101314.22;5081358;27;45463;-63
2021/07/01 00:54:38;;;;;;;;;10.25;9.00;;;;;19.00;58.31;101313.38;5081493;27;45255;-63
2021/07/01 00:57:05;;;;;;;;;8.50;6.25;;;;;19.02;58.18;101315.97;5081323;27;45258;-63
2021/07/01 00:59:31;;;;;;;;;7.75;7.00;;;;;19.02;57.92;101320.41;5081102;27;45274;-63
2021/07/01 01:01:56;;;;;;;;;8.50;8.25;;;;;19.03;57.98;101324.81;5081210;27;45177;-62
2021/07/01 01:04:21;;;;;;;;;10.50;9.00;;;;;19.03;57.63;101317.72;5092149;27;45158;-63
2021/07/01 01:06:47;;;;;;;;;7.75;6.25;;;;;18.97;57.97;101308.16;5081217;27;45456;-63
2021/07/01 01:09:13;;;;;;;;;14.00;10.25;;;;;19.03;57.76;101317.72;5080974;27;46364;-63
2021/07/01 01:11:40;;;;;;;;;11.50;10.50;;;;;19.04;57.91;101319.41;5090042;27;45233;-63
2021/07/01 01:14:06;;;;;;;;;7.25;7.25;;;;;19.03;58.01;101320.38;5087974;27;45358;-63
2021/07/01 01:16:31;;;;;;;;;8.75;8.25;;;;;19.02;57.86;101315.09;5089796;27;45464;-62
2021/07/01 01:18:56;;;;;;;;;9.00;8.00;;;;;19.03;57.75;101316.81;5094427;27;46088;-64
2021/07/01 01:21:29;;;;;;;;;8.75;7.00;;;;;19.05;58.07;101323.81;5079438;28;45465;-63
2021/07/01 01:23:56;;;;;;;;;10.75;7.75;;;;;19.01;58.10;101311.56;5081083;27;45343;-63
2021/07/01 01:26:22;;;;;;;;;9.50;8.50;;;;;19.03;57.80;101314.16;5080561;27;45497;-63
2021/07/01 01:28:49;;;;;;;;;7.50;7.50;;;;;19.02;58.02;101313.31;5062025;28;47146;-63
2021/07/01 01:31:15;;;;;;;;;8.50;8.25;;;;;19.02;58.01;101310.66;5080883;27;45225;-62
2021/07/01 01:33:40;;;;;;;;;9.00;7.75;;;;;19.03;58.09;101309.72;5086722;27;45482;-62
2021/07/01 01:36:05;;;;;;;;;10.00;8.50;;;;;19.02;58.14;101320.41;5080629;27;45419;-62
2021/07/01 01:38:31;;;;;;;;;12.25;11.75;;;;;19.00;57.76;101313.38;5080630;28;45895;-63
2021/07/01 01:40:56;;;;;;;;;8.75;8.75;;;;;19.00;57.67;101318.72;5080785;28;45188;-63
2021/07/01 01:43:22;;;;;;;;;9.75;8.50;;;;;18.96;57.55;101306.41;5080721;27;45275;-62
2021/07/01 01:45:49;;;;;;;;;9.00;8.00;;;;;19.00;57.83;101312.50;5080799;27;45578;-63
2021/07/01 01:48:15;;;;;;;;;7.50;7.50;;;;;18.96;57.81;101308.22;5080366;27;45342;-63
2021/07/01 01:50:41;;;;;;;;;6.00;6.00;;;;;18.97;58.02;101324.13;5062343;28;45382;-62
2021/07/01 01:53:07;;;;;;;;;11.00;11.00;;;;;18.96;58.02;101325.06;5080678;27;45395;-62
2021/07/01 01:55:34;;;;;;;;;11.50;11.50;;;;;18.98;58.24;101325.00;5080573;27;45353;-62
2021/07/01 01:57:59;;;;;;;;;11.25;11.25;;;;;18.96;57.79;101325.06;5080018;28;46396;-63
2021/07/01 02:00:27;;;;;;;;;12.25;10.25;;;;;18.95;57.83;101317.13;5078983;28;45334;-62
2021/07/01 02:02:53;;;;;;;;;9.00;7.50;;;;;18.92;58.16;101314.63;5083620;27;45262;-62
2021/07/01 02:05:19;;;;;;;;;10.00;8.75;;;;;18.94;58.13;101321.63;5085805;27;45428;-63
2021/07/01 02:07:45;;;;;;;;;8.25;7.50;;;;;18.91;58.07;101305.75;5086959;27;46525;-62
2021/07/01 02:10:12;;;;;;;;;11.50;9.00;;;;;18.93;58.23;101313.66;5087104;27;45383;-62
2021/07/01 02:12:38;;;;;;;;;10.25;7.00;;;;;18.92;58.01;101315.47;5066095;28;45324;-62
2021/07/01 02:15:05;;;;;;;;;10.00;7.75;;;;;18.92;58.00;101303.97;5094921;27;45306;-62
2021/07/01 02:17:34;;;;;;;;;7.50;6.50;;;;;18.92;57.95;101306.63;5084679;27;45292;-62
2021/07/01 02:20:00;;;;;;;;;12.00;11.25;;;;;18.90;58.01;101305.78;5088086;27;45403;-62
2021/07/01 02:22:25;;;;;;;;;9.00;8.00;;;;;18.90;57.94;101301.34;5080093;28;45449;-63
2021/07/01 02:24:51;;;;;;;;;8.00;7.75;;;;;18.88;57.85;101308.50;5080007;28;45397;-63
2021/07/01 02:27:16;;;;;;;;;9.25;9.00;;;;;18.87;57.73;101306.78;5079711;28;46049;-63
2021/07/01 02:29:41;;;;;;;;;9.25;8.25;;;;;18.87;57.56;101305.88;5079985;27;45301;-63
2021/07/01 02:32:07;;;;;;;;;12.00;9.50;;;;;18.86;57.90;101306.84;5080093;28;45498;-63
2021/07/01 02:34:39;;;;;;;;;7.75;7.50;;;;;18.84;58.04;101312.19;5098128;27;45477;-63
2021/07/01 02:37:05;;;;;;;;;8.00;8.00;;;;;18.81;57.93;101305.19;5079935;27;45367;-62
2021/07/01 02:39:31;;;;;;;;;8.75;8.00;;;;;18.79;57.74;101301.75;5081297;28;45358;-62
2021/07/01 02:41:56;;;;;;;;;9.00;8.00;;;;;18.80;58.02;101305.28;5083336;27;45366;-62
2021/07/01 02:44:21;;;;;;;;;9.25;7.00;;;;;18.76;57.88;101298.34;5096595;27;45561;-62
2021/07/01 02:46:47;;;;;;;;;11.00;9.25;;;;;18.76;57.92;101299.19;5097357;27;46126;-62
2021/07/01 02:49:12;;;;;;;;;14.50;11.50;;;;;18.76;58.13;101299.19;5082149;28;45329;-62
2021/07/01 02:51:37;;;;;;;;;10.00;10.00;;;;;18.75;57.76;101297.47;5083265;27;45552;-62
2021/07/01 02:54:03;;;;;;;;;12.00;8.25;;;;;18.72;58.09;101296.75;5083522;27;45780;-62
2021/07/01 02:56:39;;;;;;;;;8.50;7.75;;;;;18.73;57.79;101295.78;5083276;27;45327;-62
2021/07/01 02:59:05;;;;;;;;;10.75;9.25;;;;;18.69;57.81;101297.69;5083218;27;45244;-62
2021/07/01 03:01:30;;;;;;;;;9.00;8.00;;;;;18.71;57.76;101303.00;5083398;27;45174;-62
2021/07/01 03:03:55;;;;;;;;;10.00;9.75;;;;;18.69;57.86;101308.34;5094934;27;45412;-62
2021/07/01 03:06:21;;;;;;;;;10.00;9.25;;;;;18.68;57.88;101301.31;5103579;27;45335;-62
2021/07/01 03:08:46;;;;;;;;;9.00;7.75;;;;;18.67;58.12;101291.59;5088444;27;45311;-62
2021/07/01 03:11:11;;;;;;;;;9.50;8.50;;;;;18.66;57.93;101292.50;5083317;27;45245;-62
2021/07/01 03:13:37;;;;;;;;;7.50;7.50;;;;;18.62;57.94;101285.59;5084202;27;45261;-62
2021/07/01 03:16:02;;;;;;;;;9.00;8.50;;;;;18.61;58.28;101284.69;5079072;28;45238;-62
2021/07/01 03:18:27;;;;;;;;;9.75;8.75;;;;;18.62;57.90;101294.41;5095792;27;45251;-62
2021/07/01 03:20:53;;;;;;;;;11.25;9.50;;;;;18.61;57.96;101292.69;5083373;27;45462;-62
2021/07/01 03:23:18;;;;;;;;;11.75;10.25;;;;;18.60;57.81;101285.66;5083077;27;45197;-62
2021/07/01 03:25:43;;;;;;;;;11.00;10.75;;;;;18.57;58.13;101288.41;5087427;27;45990;-62
2021/07/01 03:28:09;;;;;;;;;7.50;6.50;;;;;18.59;57.98;101285.69;5103106;27;45381;-62
2021/07/01 03:30:34;;;;;;;;;9.50;7.75;;;;;18.59;58.21;101285.69;5083475;27;45260;-62
2021/07/01 03:32:59;;;;;;;;;11.75;8.00;;;;;18.59;58.29;101285.69;5087717;27;45473;-62
2021/07/01 03:35:25;;;;;;;;;12.25;10.25;;;;;18.56;58.03;101283.16;5064573;28;48400;-62
2021/07/01 03:37:50;;;;;;;;;12.50;10.75;;;;;18.58;57.99;101286.59;5081394;28;45297;-62
2021/07/01 03:40:15;;;;;;;;;9.25;9.00;;;;;18.55;58.33;101281.41;5082700;27;45383;-62
2021/07/01 03:42:41;;;;;;;;;10.50;9.75;;;;;18.57;58.44;101279.56;5081251;28;45536;-63
2021/07/01 03:45:06;;;;;;;;;12.00;9.25;;;;;18.54;58.22;101283.22;5088567;27;45997;-62
2021/07/01 03:47:33;;;;;;;;;8.25;7.00;;;;;18.54;58.31;101288.53;5102883;27;45407;-62
2021/07/01 03:49:58;;;;;;;;;13.25;12.00;;;;;18.54;58.17;101293.88;5082100;27;45497;-62
2021/07/01 03:52:23;;;;;;;;;9.00;8.00;;;;;18.53;58.41;101286.81;5082435;27;45472;-62
2021/07/01 03:54:49;;;;;;;;;9.50;9.00;;;;;18.52;58.10;101285.91;5063991;28;48381;-62
2021/07/01 03:57:14;;;;;;;;;13.00;12.25;;;;;18.52;58.37;101291.25;5082384;27;45177;-62
2021/07/01 03:59:39;;;;;;;;;16.25;15.25;;;;;18.52;58.08;101293.06;5082311;27;45223;-63
2021/07/01 04:02:05;;;;;;;;;42.50;34.00;;;;;18.51;58.48;101289.53;5082373;27;45208;-62
2021/07/01 04:04:30;;;;;;;;;42.75;32.50;;;;;18.52;58.15;101298.38;5092245;27;46227;-62
2021/07/01 04:06:56;;;;;;;;;27.25;22.25;;;;;18.49;58.24;101288.72;5063740;28;45380;-63
2021/07/01 04:09:21;;;;;;;;;16.00;14.25;;;;;18.49;58.27;101291.38;5082091;27;45346;-62
2021/07/01 04:11:47;;;;;;;;;14.50;11.75;;;;;18.52;58.37;101299.22;5081887;27;45268;-63
2021/07/01 04:14:16;;;;;;;;;20.50;15.50;;;;;18.49;58.25;101296.69;5089574;27;45929;-63
2021/07/01 04:16:41;;;;;;;;;11.75;11.00;;;;;18.51;58.29;101307.28;5088373;27;45308;-62
2021/07/01 04:19:06;;;;;;;;;14.75;12.00;;;;;18.49;58.43;101294.03;5077167;28;45384;-63
2021/07/01 04:21:32;;;;;;;;;16.00;12.50;;;;;18.50;58.22;101298.44;5093554;27;45375;-63
2021/07/01 04:23:58;;;;;;;;;16.00;14.00;;;;;18.49;58.27;101296.69;5083675;27;46054;-63
2021/07/01 04:26:24;;;;;;;;;13.75;12.50;;;;;18.49;58.24;101306.50;5092425;27;45387;-63
2021/07/01 04:28:51;;;;;;;;;11.25;11.25;;;;;18.49;58.47;101295.84;5097099;27;45435;-63
2021/07/01 04:31:17;;;;;;;;;14.00;13.00;;;;;18.45;58.33;101300.41;5081633;27;46150;-63
2021/07/01 04:33:43;;;;;;;;;13.50;12.25;;;;;18.45;58.66;101303.06;5083317;27;47276;-63
2021/07/01 04:36:08;;;;;;;;;13.75;12.75;;;;;18.45;58.33;101304.84;5080195;28;45946;-63
2021/07/01 04:38:34;;;;;;;;;16.00;11.50;;;;;18.38;58.46;101293.59;5095441;27;45229;-63
2021/07/01 04:40:59;;;;;;;;;19.25;13.25;;;;;18.41;58.44;101304.09;5081880;27;45327;-63
2021/07/01 04:43:24;;;;;;;;;16.50;14.75;;;;;18.36;58.52;101316.72;5082017;27;46181;-63
2021/07/01 04:45:50;;;;;;;;;17.00;17.00;;;;;18.31;59.17;101308.91;5089652;27;45402;-63
2021/07/01 04:48:15;;;;;;;;;16.00;15.75;;;;;18.29;58.92;101316.09;5081536;27;45810;-63
2021/07/01 04:50:40;;;;;;;;;22.50;20.25;;;;;18.27;58.65;101311.75;5081341;27;45435;-63
2021/07/01 04:53:06;;;;;;;;;21.00;18.25;;;;;18.24;58.96;101317.16;5081286;27;46172;-63
2021/07/01 04:55:31;;;;;;;;;15.25;14.75;;;;;18.21;58.72;101310.16;5081506;27;45288;-63
2021/07/01 04:57:56;;;;;;;;;18.75;15.75;;;;;18.18;58.61;101311.16;5081252;27;45311;-64
2021/07/01 05:00:22;;;;;;;;;17.25;13.50;;;;;18.15;59.08;101308.63;5080015;28;45296;-63
2021/07/01 05:02:47;;;;;;;;;16.75;16.50;;;;;18.14;58.89;101317.50;5082397;27;45256;-63
2021/07/01 05:05:12;;;;;;;;;16.75;11.75;;;;;18.10;58.90;101309.69;5089271;27;45297;-63
2021/07/01 05:07:42;;;;;;;;;18.50;16.25;;;;;18.08;58.86;101322.19;5063015;28;45386;-63
2021/07/01 05:10:09;;;;;;;;;16.75;15.25;;;;;18.03;59.04;101325.03;5081146;27;45447;-63
2021/07/01 05:12:35;;;;;;;;;15.00;14.50;;;;;17.98;59.29;101324.31;5080723;27;45425;-62
2021/07/01 05:15:00;;;;;;;;;17.50;17.00;;;;;17.95;59.35;101321.75;5095509;27;45425;-63
2021/07/01 05:17:26;;;;;;;;;19.00;17.00;;;;;17.91;59.43;101320.09;5066027;28;45815;-63
2021/07/01 05:19:51;;;;;;;;;24.00;23.25;;;;;17.83;59.36;101325.69;5091933;27;45260;-63
2021/07/01 05:22:16;;;;;;;;;24.25;24.00;;;;;17.84;59.49;101333.59;5093243;27;47129;-63
2021/07/01 05:24:42;;;;;;;;;21.75;19.50;;;;;17.81;59.41;101320.44;5091736;27;45372;-63
2021/07/01 05:27:07;;;;;;;;;19.00;17.75;;;;;17.82;59.68;101316.88;5085832;27;45349;-63
2021/07/01 05:29:32;;;;;;;;;16.75;16.00;;;;;17.76;59.68;101319.75;5079555;28;45598;-62
2021/07/01 05:31:58;;;;;;;;;20.50;19.25;;;;;17.79;59.58;101321.41;5062378;28;46015;-63
2021/07/01 05:34:24;;;;;;;;;17.00;15.75;;;;;17.79;59.45;101332.06;5096548;27;45323;-63
2021/07/01 05:36:49;;;;;;;;;22.50;20.50;;;;;17.76;59.47;101329.47;5083482;27;45178;-62
2021/07/01 05:39:14;;;;;;;;;22.25;22.00;;;;;17.75;59.65;101333.06;5069991;28;45239;-64
2021/07/01 05:41:40;;;;;;;;;21.50;19.50;;;;;17.72;59.70;101331.38;5092805;27;47187;-62
2021/07/01 05:44:05;;;;;;;;;24.25;19.25;;;;;17.66;60.05;101335.13;5080703;28;45224;-64
2021/07/01 05:46:31;;;;;;;;;20.75;20.25;;;;;17.64;59.93;101338.75;5080668;27;45297;-64
2021/07/01 05:48:57;;;;;;;;;21.75;21.75;;;;;17.60;60.31;101331.81;5080575;28;45375;-64
2021/07/01 05:51:23;;;;;;;;;25.75;22.50;;;;;17.55;60.17;101332.81;5080257;27;46338;-64
2021/07/01 05:54:02;;;;;;;;;24.00;23.00;;;;;17.57;60.24;101334.56;5080539;28;45525;-64
2021/07/01 05:56:36;;;;;;;;;16.25;13.00;;;;;17.53;60.76;101342.66;5080427;27;45308;-64
2021/07/01 05:59:02;;;;;;;;;21.75;18.50;;;;;17.52;60.50;101342.69;5080177;28;45385;-64
2021/07/01 06:01:27;;;;;;;;;23.00;18.75;;;;;17.49;60.30;101338.34;5080009;27;45385;-63
2021/07/01 06:03:52;;;;;;;;;16.50;15.50;;;;;17.47;60.44;101342.88;5091162;27;45330;-63
2021/07/01 06:06:18;;;;;;;;;21.25;17.50;;;;;17.47;60.59;101342.88;5080364;28;45384;-63
2021/07/01 06:08:45;;;;;;;;;19.75;19.75;;;;;17.46;60.52;101349.09;5080191;27;45325;-62
2021/07/01 06:11:15;;;;;;;;;20.50;19.00;;;;;17.45;60.49;101334.06;5080200;27;46381;-58
2021/07/01 06:13:44;;;;;;;;;19.50;17.50;;;;;17.44;60.38;101339.44;5095054;27;46671;-61
2021/07/01 06:16:11;;;;;;;;;18.00;18.00;;;;;17.44;60.30;101347.41;5091455;27;45486;-63
2021/07/01 06:18:40;;;;;;;;;23.50;18.00;;;;;17.45;60.47;101347.34;5093381;27;45454;-63
2021/07/01 06:21:06;;;;;;;;;25.75;20.00;;;;;17.46;60.47;101351.75;5079792;28;46988;-61
2021/07/01 06:23:32;;;;;;;;;24.50;20.75;;;;;17.50;60.26;101353.38;5079990;27;45344;-64
2021/07/01 06:25:59;;;;;;;;;15.25;13.50;;;;;17.54;60.49;101348.84;5088371;27;45467;-63
2021/07/01 06:28:26;;;;;;;;;14.75;14.00;;;;;17.56;60.36;101352.31;5098773;27;45306;-63
2021/07/01 06:30:51;;;;;;;;;15.50;15.25;;;;;17.59;60.04;101346.03;5079894;27;45625;-63
2021/07/01 06:33:18;;;;;;;;;17.50;15.75;;;;;17.65;60.24;101351.13;5087257;27;45322;-63
2021/07/01 06:35:54;;;;;;;;;18.75;18.50;;;;;17.69;60.28;101352.75;5091558;27;45252;-63
2021/07/01 06:38:23;;;;;;;;;20.00;15.25;;;;;17.72;60.10;101349.97;5079896;27;45441;-62
2021/07/01 06:40:50;;;;;;;;;22.50;17.75;;;;;17.76;60.30;101351.63;5079963;28;46467;-62
2021/07/01 06:43:26;;;;;;;;;17.75;15.75;;;;;17.80;59.98;101363.03;5078111;27;45220;-63
2021/07/01 06:45:55;;;;;;;;;15.75;14.00;;;;;17.86;59.92;101350.38;5087002;27;45379;-63
2021/07/01 06:48:22;;;;;;;;;20.25;17.50;;;;;17.91;59.93;101347.56;5096350;27;45480;-62
2021/07/01 06:50:51;;;;;;;;;20.00;18.25;;;;;18.00;60.08;101360.56;5094030;27;46249;-62
2021/07/01 06:53:17;;;;;;;;;17.25;17.25;;;;;18.07;59.91;101350.56;5088040;27;45249;-62
2021/07/01 06:55:44;;;;;;;;;18.75;15.75;;;;;18.10;60.18;101344.28;5100096;27;45678;-63
2021/07/01 06:58:10;;;;;;;;;12.25;11.25;;;;;18.18;60.06;101356.38;5090496;27;45332;-62
2021/07/01 07:00:35;;;;;;;;;18.00;16.00;;;;;18.25;59.89;101362.34;5097027;27;45332;-64
2021/07/01 07:03:02;;;;;;;;;17.25;13.50;;;;;18.31;59.71;101359.47;5094016;27;45354;-64
2021/07/01 07:05:28;;;;;;;;;15.50;15.25;;;;;18.26;59.88;101353.41;5100407;27;45409;-65
2021/07/01 07:07:54;;;;;;;;;14.50;13.00;;;;;18.38;59.91;101367.19;5085136;27;45532;-65
2021/07/01 07:10:21;;;;;;;;;13.00;12.75;;;;;18.41;59.72;101365.28;5087107;27;46908;-64
2021/07/01 07:12:51;;;;;;;;;15.75;14.50;;;;;18.46;59.72;101368.66;5099989;27;45295;-64
2021/07/01 07:15:29;;;;;;;;;12.50;11.25;;;;;18.51;59.48;101379.13;5093577;27;45479;-64
2021/07/01 07:18:02;;;;;;;;;13.00;10.75;;;;;18.52;59.27;101381.72;5094903;27;45399;-66
2021/07/01 07:20:29;;;;;;;;;9.75;8.50;;;;;18.52;59.33;101372.88;5076504;27;47448;-65
2021/07/01 07:22:56;;;;;;;;;11.75;11.50;;;;;18.57;59.11;101380.72;5099898;27;45250;-65
2021/07/01 07:25:22;;;;;;;;;12.25;9.75;;;;;18.58;59.25;101369.09;5101391;27;45307;-65
2021/07/01 07:27:55;;;;;;;;;12.00;11.75;;;;;18.60;58.87;101384.13;5102698;27;45391;-65
2021/07/01 07:30:25;;;;;;;;;15.25;12.00;;;;;18.60;58.90;101377.91;5102785;27;46394;-65
2021/07/01 07:32:53;;;;;;;;;10.50;10.50;;;;;18.57;58.76;101370.06;5086777;27;46159;-64
2021/07/01 07:35:20;;;;;;;;;14.50;12.25;;;;;18.57;58.66;101376.25;5101755;27;45533;-63
2021/07/01 07:37:45;;;;;;;;;11.50;9.50;;;;;18.54;58.78;101373.72;5103062;27;45322;-64
2021/07/01 07:40:11;;;;;;;;;15.00;12.50;;;;;18.56;58.66;101365.66;5102652;27;46400;-65
2021/07/01 07:42:37;;;;;;;;;14.00;14.00;;;;;18.56;58.66;101374.50;5081450;27;45210;-64
2021/07/01 07:45:03;;;;;;;;;14.00;11.50;;;;;18.55;58.59;101366.56;5088168;27;45195;-64
2021/07/01 07:47:29;;;;;;;;;14.00;13.00;;;;;18.56;58.82;101373.66;5101044;27;45252;-63
2021/07/01 07:49:55;;;;;;;;;13.75;12.50;;;;;18.57;58.48;101380.72;5084039;27;46482;-64
2021/07/01 07:52:22;;;;;;;;;14.50;13.25;;;;;18.57;58.51;101380.72;5099912;27;45313;-64
2021/07/01 07:54:51;;;;;;;;;12.50;12.50;;;;;18.58;58.65;101379.75;5102165;27;45503;-63
2021/07/01 07:57:18;;;;;;;;;13.25;12.50;;;;;18.60;58.66;101378.81;5102119;27;45491;-63
2021/07/01 07:59:49;;;;;;;;;18.25;16.00;;;;;18.62;58.35;101379.59;5102251;27;46239;-63
2021/07/01 08:02:30;;;;;;;;;13.00;11.75;;;;;18.64;58.49;101374.19;5089677;27;45248;-64
2021/07/01 08:05:00;;;;;;;;;15.75;13.25;;;;;18.65;58.42;101373.28;5102613;27;45412;-64
2021/07/01 08:07:25;;;;;;;;;17.00;15.00;;;;;18.66;58.16;101372.34;5092161;27;45542;-63
2021/07/01 08:09:51;;;;;;;;;15.25;15.25;;;;;18.66;57.85;101377.69;5083488;27;47830;-64
2021/07/01 08:12:17;;;;;;;;;17.25;16.75;;;;;18.66;57.83;101375.03;5102042;27;45356;-64
2021/07/01 08:14:43;;;;;;;;;14.50;14.50;;;;;18.68;58.18;101376.69;5091622;27;45236;-63
2021/07/01 08:17:12;;;;;;;;;17.75;15.75;;;;;18.67;57.85;101368.78;5073067;27;45546;-64
2021/07/01 08:19:39;;;;;;;;;15.25;14.00;;;;;18.73;58.46;101368.53;5102379;27;45450;-63
2021/07/01 08:22:05;;;;;;;;;16.50;15.75;;;;;18.76;57.92;101372.88;5102595;27;45287;-65
2021/07/01 08:24:30;;;;;;;;;21.75;18.50;;;;;18.74;57.99;101364.97;5102566;27;45141;-65
2021/07/01 08:26:56;;;;;;;;;18.00;15.25;;;;;18.79;58.16;101360.31;5102959;27;45520;-65
2021/07/01 08:29:22;;;;;;;;;19.25;15.75;;;;;18.83;57.77;101363.75;5101933;27;45421;-62
2021/07/01 08:31:49;;;;;;;;;21.00;19.00;;;;;18.81;57.76;101349.59;5101817;27;45373;-64
2021/07/01 08:34:19;;;;;;;;;21.75;16.75;;;;;18.89;57.92;101354.63;5079289;28;45272;-65
2021/07/01 08:36:46;;;;;;;;;16.75;15.00;;;;;18.94;57.76;101358.00;5099466;27;45232;-64
2021/07/01 08:39:12;;;;;;;;;20.00;15.50;;;;;18.99;58.11;101356.91;5101678;27;46636;-64
2021/07/01 08:41:43;;;;;;;;;18.25;16.75;;;;;19.02;57.82;101360.34;5101801;27;45480;-64
2021/07/01 08:44:17;;;;;;;;;22.00;17.00;;;;;19.07;57.58;101361.03;5101585;27;45488;-64
2021/07/01 08:46:52;;;;;;;;;17.25;16.25;;;;;19.11;57.86;101354.69;5091084;27;45324;-64
2021/07/01 08:49:23;;;;;;;;;19.50;16.50;;;;;19.16;57.78;101355.38;5098342;27;47259;-64
2021/07/01 08:51:49;;;;;;;;;18.25;16.75;;;;;19.22;57.41;101354.22;5082980;27;45334;-65
2021/07/01 08:54:34;;;;;;;;;18.50;18.50;;;;;19.28;57.61;101360.19;5101566;27;45404;-64
2021/07/01 08:57:01;;;;;;;;;21.75;18.25;;;;;19.35;57.44;101355.47;5101558;27;45403;-64
2021/07/01 08:59:39;;;;;;;;;24.25;17.50;;;;;19.40;57.72;101356.16;5101036;27;45468;-63
2021/07/01 09:02:08;;;;;;;;;23.25;20.50;;;;;19.46;57.31;101347.03;5083143;27;45285;-64
2021/07/01 09:04:52;;;;;;;;;19.00;19.00;;;;;19.49;57.54;101352.22;5079830;28;45245;-66
2021/07/01 09:07:23;;;;;;;;;17.25;16.75;;;;;19.56;57.18;101355.50;5100957;27;45316;-63
2021/07/01 09:09:57;;;;;;;;;22.25;19.25;;;;;19.59;56.97;101352.72;5101193;27;46030;-64
2021/07/01 09:12:25;;;;;;;;;19.25;18.50;;;;;19.62;57.04;101340.13;5101063;27;45414;-64
2021/07/01 09:15:02;;;;;;;;;19.00;17.25;;;;;19.69;57.51;101348.72;5101299;27;45496;-64
2021/07/01 09:17:30;;;;;;;;;19.50;17.50;;;;;19.77;56.92;101354.59;5090558;27;45489;-64
2021/07/01 09:19:57;;;;;;;;;22.25;19.00;;;;;19.83;56.62;101353.47;5100616;27;46329;-63
2021/07/01 09:22:28;;;;;;;;;20.25;17.25;;;;;19.89;57.27;101353.22;5101091;27;45454;-64
2021/07/01 09:24:55;;;;;;;;;21.75;19.50;;;;;19.95;57.31;101355.63;5082977;27;45300;-64
2021/07/01 09:27:21;;;;;;;;;18.25;14.50;;;;;20.04;56.82;101349.00;5100892;27;45337;-63
2021/07/01 09:29:49;;;;;;;;;21.00;17.75;;;;;20.12;57.11;101351.34;5100395;27;45641;-65
2021/07/01 09:32:18;;;;;;;;;20.25;19.75;;;;;20.20;56.98;101351.88;5100963;27;45205;-65
2021/07/01 09:34:45;;;;;;;;;25.75;20.75;;;;;20.29;56.30;101345.25;5098737;27;45254;-65
2021/07/01 09:37:11;;;;;;;;;20.00;16.50;;;;;20.36;56.85;101349.34;5100940;27;45368;-65
2021/07/01 09:39:38;;;;;;;;;22.25;22.25;;;;;20.44;57.03;101343.69;5090594;27;46098;-66
2021/07/01 09:42:05;;;;;;;;;20.75;18.50;;;;;20.53;56.75;101356.59;5082232;27;45314;-65
2021/07/01 09:44:33;;;;;;;;;19.50;19.00;;;;;20.59;56.46;101347.41;5100466;27;45287;-65
2021/07/01 09:47:03;;;;;;;;;23.25;19.75;;;;;20.70;56.87;101349.59;5100846;27;45513;-64
2021/07/01 09:49:38;;;;;;;;;18.50;17.50;;;;;20.78;56.71;101350.16;5099452;27;46075;-64
2021/07/01 09:52:06;;;;;;;;;24.75;21.00;;;;;20.88;56.21;101351.44;5100726;27;45457;-65
2021/07/01 09:54:34;;;;;;;;;23.00;20.25;;;;;20.96;56.77;101348.38;5100678;27;45386;-65
2021/07/01 09:57:33;;;;;;;;;21.00;19.75;;;;;21.05;56.05;101361.28;5082058;27;45434;-63
2021/07/01 10:00:06;;;;;;;;;18.75;18.00;;;;;21.16;56.63;101358.09;5088558;27;45642;-63
2021/07/01 10:02:31;;;;;;;;;20.75;17.50;;;;;21.24;56.63;101358.59;5100042;27;45277;-64
2021/07/01 10:04:57;;;;;;;;;20.75;18.25;;;;;21.34;56.22;101348.31;5100426;27;45390;-65
2021/07/01 10:07:25;;;;;;;;;21.25;20.75;;;;;21.45;55.85;101349.59;5086739;27;45324;-64
2021/07/01 10:09:53;;;;;;;;;21.75;18.50;;;;;21.54;55.82;101343.78;5100100;27;46150;-64
2021/07/01 10:12:29;;;;;;;;;19.50;19.25;;;;;21.65;55.86;101346.78;5098313;27;45437;-65
2021/07/01 10:14:58;;;;;;;;;20.75;20.25;;;;;21.67;56.36;101339.56;5086940;27;45504;-64
2021/07/01 10:17:25;;;;;;;;;20.50;18.25;;;;;21.85;56.10;101342.25;5086553;27;45607;-64
2021/07/01 10:20:04;;;;;;;;;21.75;18.75;;;;;21.98;56.22;101348.66;5080952;27;48619;-64
2021/07/01 10:22:35;;;;;;;;;18.25;16.75;;;;;22.08;55.96;101349.88;5100223;27;45398;-64
2021/07/01 10:25:01;;;;;;;;;19.00;18.00;;;;;22.21;55.40;101349.25;5100416;27;45211;-65
2021/07/01 10:27:33;;;;;;;;;23.75;19.50;;;;;22.31;55.76;101350.47;5089624;27;45508;-66
2021/07/01 10:30:02;;;;;;;;;24.75;20.00;;;;;22.41;55.59;101342.84;5099555;27;46452;-65
2021/07/01 10:32:46;;;;;;;;;25.75;22.50;;;;;22.51;55.50;101345.88;5099152;27;45381;-65
2021/07/01 10:35:26;;;;;;;;;22.75;21.25;;;;;22.59;55.57;101350.81;5086673;27;45239;-66
2021/07/01 10:38:05;;;;;;;;;23.25;18.00;;;;;22.67;55.50;101338.72;5100082;27;45256;-65
2021/07/01 10:40:35;;;;;;;;;25.00;22.00;;;;;22.76;55.39;101347.22;5090515;27;46337;-65
2021/07/01 10:43:00;;;;;;;;;24.50;20.75;;;;;22.85;55.33;101352.03;5080007;27;45507;-66
2021/07/01 10:45:27;;;;;;;;;28.50;26.00;;;;;22.91;55.15;101349.00;5083079;27;45528;-66
2021/07/01 10:47:54;;;;;;;;;29.00;24.50;;;;;22.94;55.05;101350.66;5097870;27;45324;-64
2021/07/01 10:50:20;;;;;;;;;21.75;20.75;;;;;23.00;55.47;101350.31;5099571;27;45493;-63
2021/07/01 10:52:45;;;;;;;;;19.00;14.25;;;;;22.94;54.65;101342.63;5099622;27;45769;-63
2021/07/01 10:55:13;;;;;;;;;26.00;23.75;;;;;22.94;54.50;101342.63;5081788;27;45283;-64
2021/07/01 10:57:53;;;;;;;;;27.00;23.25;;;;;22.94;54.45;101356.88;5099666;27;45486;-64
2021/07/01 11:00:36;;;;;;;;;25.00;22.50;;;;;22.88;54.29;101349.19;5100622;27;46180;-64
2021/07/01 11:03:03;;;;;;;;;25.00;23.00;;;;;22.88;54.24;101352.72;5093151;27;45336;-63
2021/07/01 11:05:36;;;;;;;;;28.50;23.75;;;;;22.84;54.17;101355.66;5103331;27;45512;-63
2021/07/01 11:08:01;;;;;;;;;25.00;23.00;;;;;22.81;54.07;101354.03;5103218;27;45322;-66
2021/07/01 11:10:38;;;;;;;;;23.00;22.75;;;;;22.76;54.19;101355.25;5084561;27;46543;-65
2021/07/01 11:13:08;;;;;;;;;26.75;24.00;;;;;22.74;54.06;101357.97;5103067;27;45461;-64